createdAt,value
2023-03-13T00:01:36.659Z,98565.48
2023-03-13T00:04:04.633Z,98558.83
2023-03-13T00:06:36.958Z,98555.88
2023-03-13T00:09:05.634Z,98555.02
2023-03-13T00:11:36.260Z,98561.27
2023-03-13T00:14:04.347Z,98563.85
2023-03-13T00:16:42.125Z,98559.51
2023-03-13T00:19:09.497Z,98559.50
2023-03-13T00:21:41.345Z,98559.45
2023-03-13T00:24:18.351Z,98557.02
2023-03-13T00:26:45.877Z,98551.66
2023-03-13T00:29:13.358Z,98556.33
2023-03-13T00:31:45.926Z,98548.77
2023-03-13T00:34:14.097Z,98546.68
2023-03-13T00:36:45.310Z,98547.19
2023-03-13T00:39:12.672Z,98548.27
2023-03-13T00:41:41.247Z,98546.25
2023-03-13T00:44:08.525Z,98544.49
2023-03-13T00:46:38.753Z,98546.11
2023-03-13T00:49:06.602Z,98544.30
2023-03-13T00:51:35.773Z,98543.90
2023-03-13T00:54:04.160Z,98540.27
2023-03-13T00:56:35.045Z,98531.70
2023-03-13T00:59:02.664Z,98534.63
2023-03-13T01:01:35.045Z,98532.17
2023-03-13T01:04:08.759Z,98523.33
2023-03-13T01:06:37.944Z,98518.73
2023-03-13T01:09:05.714Z,98515.02
2023-03-13T01:11:35.269Z,98516.23
2023-03-13T01:14:04.725Z,98508.90
2023-03-13T01:16:38.207Z,98508.84
2023-03-13T01:19:10.584Z,98507.91
2023-03-13T01:21:42.244Z,98512.42
2023-03-13T01:24:09.652Z,98510.20
2023-03-13T01:26:40.279Z,98518.50
2023-03-13T01:29:07.661Z,98520.55
2023-03-13T01:31:35.509Z,98519.52
2023-03-13T01:34:15.130Z,98520.69
2023-03-13T01:36:44.117Z,98523.33
2023-03-13T01:39:14.809Z,98522.53
2023-03-13T01:41:42.307Z,98519.63
2023-03-13T01:44:21.089Z,98507.84
2023-03-13T01:46:48.476Z,98502.78
2023-03-13T01:49:33.638Z,98499.91
2023-03-13T01:52:31.294Z,98494.95
2023-03-13T01:55:22.708Z,98497.52
2023-03-13T01:57:53.029Z,98497.21
2023-03-13T02:00:27.588Z,98505.38
2023-03-13T02:03:07.918Z,98505.89
2023-03-13T02:05:36.446Z,98502.59
2023-03-13T02:08:12.568Z,98496.99
2023-03-13T02:10:54.503Z,98496.40
2023-03-13T02:13:22.746Z,98500.66
2023-03-13T02:15:50.323Z,98489.61
2023-03-13T02:18:17.566Z,98482.20
2023-03-13T02:20:46.408Z,98484.33
2023-03-13T02:23:15.144Z,98489.73
2023-03-13T02:25:52.095Z,98491.27
2023-03-13T02:28:35.822Z,98485.95
2023-03-13T02:31:06.935Z,98487.48
2023-03-13T02:33:39.985Z,98492.98
2023-03-13T02:36:47.499Z,98499.98
2023-03-13T02:40:55.589Z,98509.39
2023-03-13T02:44:27.571Z,98513.81
2023-03-13T02:47:22.625Z,98516.66
2023-03-13T02:49:53.332Z,98516.29
2023-03-13T02:52:29.204Z,98519.90
2023-03-13T02:55:05.951Z,98518.02
2023-03-13T02:57:34.032Z,98510.67
2023-03-13T03:00:05.829Z,98513.73
2023-03-13T03:02:34.008Z,98519.93
2023-03-13T03:05:04.248Z,98519.20
2023-03-13T03:07:32.065Z,98516.95
2023-03-13T03:10:00.465Z,98516.22
2023-03-13T03:12:28.705Z,98508.05
2023-03-13T03:14:56.251Z,98507.33
2023-03-13T03:17:30.028Z,98509.82
2023-03-13T03:20:08.016Z,98512.64
2023-03-13T03:22:37.811Z,98508.33
2023-03-13T03:25:09.270Z,98512.42
2023-03-13T03:27:38.074Z,98512.83
2023-03-13T03:30:07.856Z,98516.19
2023-03-13T03:32:36.316Z,98516.23
2023-03-13T03:35:11.293Z,98511.86
2023-03-13T03:37:39.135Z,98517.23
2023-03-13T03:40:07.796Z,98527.24
2023-03-13T03:42:35.567Z,98526.41
2023-03-13T03:45:22.657Z,98526.90
2023-03-13T03:47:59.754Z,98518.66
2023-03-13T03:50:30.768Z,98521.35
2023-03-13T03:52:59.810Z,98519.73
2023-03-13T03:55:27.566Z,98517.02
2023-03-13T03:57:55.119Z,98524.26
2023-03-13T04:00:38.102Z,98526.91
2023-03-13T04:03:05.680Z,98521.02
2023-03-13T04:05:34.716Z,98519.87
2023-03-13T04:08:02.180Z,98520.80
2023-03-13T04:10:29.893Z,98538.35
2023-03-13T04:12:57.059Z,98532.18
2023-03-13T04:15:24.421Z,98522.38
2023-03-13T04:17:51.898Z,98525.02
2023-03-13T04:20:21.262Z,98524.14
2023-03-13T04:22:48.867Z,98535.21
2023-03-13T04:25:21.228Z,98529.34
2023-03-13T04:27:53.532Z,98527.83
2023-03-13T04:30:23.691Z,98535.64
2023-03-13T04:33:39.699Z,98534.79
2023-03-13T04:36:19.862Z,98531.92
2023-03-13T04:39:13.642Z,98532.56
2023-03-13T04:41:58.115Z,98529.53
2023-03-13T04:44:44.060Z,98530.02
2023-03-13T04:47:50.126Z,98524.76
2023-03-13T04:51:00.407Z,98527.35
2023-03-13T04:53:40.799Z,98528.47
2023-03-13T04:56:43.539Z,98530.50
2023-03-13T05:00:01.325Z,98528.39
2023-03-13T05:03:05.405Z,98536.56
2023-03-13T05:05:53.651Z,98542.30
2023-03-13T05:08:48.139Z,98544.00
2023-03-13T05:11:48.492Z,98542.54
2023-03-13T05:14:36.916Z,98537.61
2023-03-13T05:17:22.660Z,98537.52
2023-03-13T05:20:21.194Z,98531.30
2023-03-13T05:22:53.642Z,98530.94
2023-03-13T05:25:53.501Z,98533.27
2023-03-13T05:28:40.670Z,98534.41
2023-03-13T05:31:26.682Z,98541.37
2023-03-13T05:34:19.131Z,98544.38
2023-03-13T05:37:04.968Z,98543.66
2023-03-13T05:39:52.321Z,98540.60
2023-03-13T05:42:26.905Z,98545.59
2023-03-13T05:45:20.348Z,98543.33
2023-03-13T05:48:26.418Z,98543.16
2023-03-13T05:51:10.836Z,98549.02
2023-03-13T05:53:54.290Z,98545.35
2023-03-13T05:56:45.174Z,98542.41
2023-03-13T05:59:37.320Z,98545.20
2023-03-13T06:02:24.861Z,98549.64
2023-03-13T06:04:53.883Z,98551.60
2023-03-13T06:07:21.735Z,98554.30
2023-03-13T06:09:50.069Z,98554.73
2023-03-13T06:12:17.227Z,98554.94
2023-03-13T06:14:45.905Z,98563.73
2023-03-13T06:17:28.854Z,98572.59
2023-03-13T06:19:56.725Z,98572.86
2023-03-13T06:22:25.593Z,98576.36
2023-03-13T06:24:53.024Z,98577.81
2023-03-13T06:27:20.143Z,98577.76
2023-03-13T06:29:47.351Z,98578.83
2023-03-13T06:32:14.407Z,98574.21
2023-03-13T06:34:48.390Z,98575.69
2023-03-13T06:37:16.854Z,98562.59
2023-03-13T06:39:58.888Z,98562.92
2023-03-13T06:42:29.725Z,98569.29
2023-03-13T06:44:56.886Z,98574.57
2023-03-13T06:47:24.022Z,98574.30
2023-03-13T06:49:51.382Z,98571.23
2023-03-13T06:52:20.277Z,98567.61
2023-03-13T06:54:48.037Z,98564.10
2023-03-13T06:57:15.105Z,98569.54
2023-03-13T06:59:45.595Z,98571.67
2023-03-13T07:02:15.827Z,98575.08
2023-03-13T07:04:46.442Z,98570.89
2023-03-13T07:07:25.829Z,98569.05
2023-03-13T07:10:04.992Z,98564.52
2023-03-13T07:12:35.236Z,98567.60
2023-03-13T07:15:04.687Z,98558.95
2023-03-13T07:17:35.089Z,98564.88
2023-03-13T07:20:10.717Z,98567.77
2023-03-13T07:22:38.253Z,98570.85
2023-03-13T07:25:09.728Z,98571.55
2023-03-13T07:27:38.653Z,98565.73
2023-03-13T07:30:06.722Z,98565.73
2023-03-13T07:32:34.599Z,98558.17
2023-03-13T07:35:04.137Z,98555.92
2023-03-13T07:37:31.864Z,98557.85
2023-03-13T07:39:58.837Z,98562.66
2023-03-13T07:42:29.018Z,98565.89
2023-03-13T07:44:56.071Z,98557.84
2023-03-13T07:47:23.276Z,98562.09
2023-03-13T07:49:51.343Z,98560.33
2023-03-13T07:52:31.662Z,98555.14
2023-03-13T07:55:03.207Z,98557.23
2023-03-13T07:57:31.149Z,98558.77
2023-03-13T07:59:59.328Z,98561.94
2023-03-13T08:02:29.741Z,98559.83
2023-03-13T08:05:00.164Z,98556.54
2023-03-13T08:07:27.571Z,98553.38
2023-03-13T08:09:54.770Z,98553.09
2023-03-13T08:12:23.568Z,98555.29
2023-03-13T08:14:51.335Z,98545.46
2023-03-13T08:17:18.759Z,98544.95
2023-03-13T08:19:45.956Z,98535.34
2023-03-13T08:22:13.179Z,98541.16
2023-03-13T08:24:40.806Z,98538.05
2023-03-13T08:27:10.041Z,98535.91
2023-03-13T08:29:37.737Z,98533.23
2023-03-13T08:32:08.929Z,98535.91
2023-03-13T08:34:37.057Z,98535.36
2023-03-13T08:37:04.674Z,98536.76
2023-03-13T08:39:33.390Z,98539.38
2023-03-13T08:42:02.051Z,98527.50
2023-03-13T08:44:31.057Z,98529.48
2023-03-13T08:47:00.014Z,98525.09
2023-03-13T08:49:30.942Z,98524.81
2023-03-13T08:52:01.230Z,98522.90
2023-03-13T08:54:28.530Z,98523.40
2023-03-13T08:56:56.966Z,98522.81
2023-03-13T08:59:30.770Z,98521.54
2023-03-13T09:02:03.385Z,98518.81
2023-03-13T09:04:30.637Z,98514.22
2023-03-13T09:07:00.133Z,98515.88
2023-03-13T09:09:27.770Z,98510.98
2023-03-13T09:11:55.984Z,98512.48
2023-03-13T09:14:24.701Z,98509.03
2023-03-13T09:16:57.820Z,98502.16
2023-03-13T09:19:25.043Z,98504.48
2023-03-13T09:22:00.565Z,98495.66
2023-03-13T09:24:35.801Z,98497.70
2023-03-13T09:27:05.850Z,98492.95
2023-03-13T09:29:40.085Z,98487.85
2023-03-13T09:32:07.414Z,98489.48
2023-03-13T09:34:44.799Z,98482.58
2023-03-13T09:37:14.560Z,98481.31
2023-03-13T09:39:41.649Z,98478.61
2023-03-13T09:42:18.514Z,98473.20
2023-03-13T09:44:53.119Z,98471.04
2023-03-13T09:47:30.859Z,98468.95
2023-03-13T09:50:19.132Z,98462.11
2023-03-13T09:52:49.583Z,98459.36
2023-03-13T09:55:21.600Z,98458.84
2023-03-13T09:58:00.090Z,98447.92
2023-03-13T10:00:46.228Z,98443.61
2023-03-13T10:03:35.404Z,98443.13
2023-03-13T10:06:11.936Z,98440.63
2023-03-13T10:08:42.995Z,98433.19
2023-03-13T10:11:16.390Z,98429.27
2023-03-13T10:13:48.974Z,98432.68
2023-03-13T10:16:45.225Z,98434.73
2023-03-13T10:19:15.940Z,98431.85
2023-03-13T10:21:49.867Z,98430.78
2023-03-13T10:24:45.233Z,98428.34
2023-03-13T10:27:14.232Z,98426.55
2023-03-13T10:29:49.695Z,98420.70
2023-03-13T10:32:17.467Z,98428.10
2023-03-13T10:34:58.928Z,98424.66
2023-03-13T10:37:31.365Z,98432.11
2023-03-13T10:40:25.704Z,98421.83
2023-03-13T10:42:54.688Z,98423.48
2023-03-13T10:45:32.058Z,98420.37
2023-03-13T10:48:10.720Z,98418.14
2023-03-13T10:50:39.271Z,98415.47
2023-03-13T10:53:31.506Z,98413.85
2023-03-13T10:56:29.419Z,98416.16
2023-03-13T10:59:02.259Z,98404.66
2023-03-13T11:01:33.850Z,98406.48
2023-03-13T11:04:26.273Z,98410.23
2023-03-13T11:06:55.453Z,98407.52
2023-03-13T11:09:27.786Z,98406.36
2023-03-13T11:12:01.386Z,98403.04
2023-03-13T11:14:29.024Z,98403.52
2023-03-13T11:17:25.058Z,98395.73
2023-03-13T11:19:58.160Z,98393.87
2023-03-13T11:22:48.508Z,98388.39
2023-03-13T11:25:32.169Z,98388.20
2023-03-13T11:28:30.601Z,98382.02
2023-03-13T11:31:04.008Z,98383.91
2023-03-13T11:33:45.636Z,98380.70
2023-03-13T11:36:32.033Z,98375.67
2023-03-13T11:39:20.815Z,98372.29
2023-03-13T11:42:16.658Z,98362.02
2023-03-13T11:44:53.698Z,98356.11
2023-03-13T11:48:16.250Z,98353.04
2023-03-13T11:50:53.137Z,98345.37
2023-03-13T11:53:44.195Z,98338.98
2023-03-13T11:56:16.910Z,98341.45
2023-03-13T11:59:04.925Z,98334.54
2023-03-13T12:01:39.483Z,98336.02
2023-03-13T12:04:13.760Z,98330.54
2023-03-13T12:06:47.064Z,98330.73
2023-03-13T12:09:31.029Z,98326.35
2023-03-13T12:12:23.748Z,98316.64
2023-03-13T12:15:21.087Z,98309.86
2023-03-13T12:18:18.490Z,98307.78
2023-03-13T12:21:05.055Z,98301.79
2023-03-13T12:23:40.425Z,98305.45
2023-03-13T12:26:13.787Z,98308.72
2023-03-13T12:28:52.280Z,98313.23
2023-03-13T12:31:25.366Z,98309.20
2023-03-13T12:34:25.068Z,98307.92
2023-03-13T12:37:02.940Z,98306.38
2023-03-13T12:39:40.363Z,98302.98
2023-03-13T12:42:08.195Z,98301.56
2023-03-13T12:44:35.626Z,98299.40
2023-03-13T12:47:11.156Z,98299.05
2023-03-13T12:50:14.202Z,98296.63
2023-03-13T12:53:00.309Z,98284.73
2023-03-13T12:56:15.030Z,98287.48
2023-03-13T12:58:58.102Z,98283.33
2023-03-13T13:01:51.458Z,98284.42
2023-03-13T13:04:32.837Z,98278.46
2023-03-13T13:07:07.253Z,98276.35
2023-03-13T13:09:39.342Z,98264.49
2023-03-13T13:12:25.894Z,98261.63
2023-03-13T13:14:53.332Z,98256.47
2023-03-13T13:17:40.762Z,98253.45
2023-03-13T13:20:30.583Z,98246.48
2023-03-13T13:23:26.656Z,98241.57
2023-03-13T13:25:55.724Z,98239.80
2023-03-13T13:28:32.760Z,98231.17
2023-03-13T13:30:59.796Z,98234.92
2023-03-13T13:33:31.107Z,98230.03
2023-03-13T13:36:10.453Z,98224.35
2023-03-13T13:38:41.941Z,98236.16
2023-03-13T13:41:10.038Z,98233.20
2023-03-13T13:43:42.722Z,98229.66
2023-03-13T13:46:30.096Z,98234.65
2023-03-13T13:49:07.681Z,98236.45
2023-03-13T13:51:38.654Z,98233.52
2023-03-13T13:54:12.953Z,98236.27
2023-03-13T13:56:42.427Z,98234.64
2023-03-13T13:59:27.054Z,98229.71
2023-03-13T14:02:03.777Z,98228.45
2023-03-13T14:04:36.372Z,98231.27
2023-03-13T14:07:05.025Z,98228.68
2023-03-13T14:09:39.941Z,98229.63
2023-03-13T14:12:30.385Z,98225.50
2023-03-13T14:15:27.580Z,98230.19
2023-03-13T14:18:20.655Z,98222.45
2023-03-13T14:21:01.051Z,98221.30
2023-03-13T14:23:32.634Z,98219.95
2023-03-13T14:26:00.168Z,98223.03
2023-03-13T14:28:29.716Z,98218.73
2023-03-13T14:30:58.102Z,98219.00
2023-03-13T14:33:26.907Z,98219.83
2023-03-13T14:35:54.685Z,98221.05
2023-03-13T14:38:23.866Z,98217.54
2023-03-13T14:40:53.528Z,98212.36
2023-03-13T14:43:32.446Z,98209.56
2023-03-13T14:46:13.494Z,98209.91
2023-03-13T14:48:44.432Z,98211.72
2023-03-13T14:51:24.922Z,98205.68
2023-03-13T14:53:59.724Z,98202.97
2023-03-13T14:57:03.688Z,98204.79
2023-03-13T14:59:30.786Z,98202.48
2023-03-13T15:02:12.470Z,98200.15
2023-03-13T15:05:05.268Z,98201.09
2023-03-13T15:07:40.805Z,98194.80
2023-03-13T15:10:20.241Z,98191.44
2023-03-13T15:12:48.607Z,98187.94
2023-03-13T15:15:15.800Z,98188.31
2023-03-13T15:17:44.162Z,98182.43
2023-03-13T15:20:12.962Z,98182.50
2023-03-13T15:22:42.149Z,98186.02
2023-03-13T15:25:18.247Z,98185.70
2023-03-13T15:27:45.937Z,98185.02
2023-03-13T15:30:18.286Z,98184.65
2023-03-13T15:32:46.939Z,98176.95
2023-03-13T15:35:24.786Z,98175.25
2023-03-13T15:37:52.380Z,98180.94
2023-03-13T15:40:20.155Z,98179.55
2023-03-13T15:43:40.091Z,98176.09
2023-03-13T15:46:30.296Z,98176.15
2023-03-13T15:48:57.540Z,98176.02
2023-03-13T15:51:25.170Z,98179.82
2023-03-13T15:53:53.590Z,98177.14
2023-03-13T15:56:23.245Z,98181.23
2023-03-13T15:58:52.781Z,98175.61
2023-03-13T16:01:23.268Z,98175.68
2023-03-13T16:03:51.282Z,98175.02
2023-03-13T16:06:21.408Z,98174.20
2023-03-13T16:08:48.837Z,98176.83
2023-03-13T16:11:16.729Z,98171.16
2023-03-13T16:13:47.205Z,98168.85
2023-03-13T16:16:24.008Z,98167.29
2023-03-13T16:18:52.463Z,98159.30
2023-03-13T16:21:23.322Z,98161.60
2023-03-13T16:23:53.491Z,98159.96
2023-03-13T16:26:32.176Z,98161.16
2023-03-13T16:29:05.299Z,98163.23
2023-03-13T16:31:33.330Z,98169.20
2023-03-13T16:34:03.695Z,98171.28
2023-03-13T16:36:33.436Z,98174.66
2023-03-13T16:39:11.022Z,98179.19
2023-03-13T16:41:40.464Z,98173.77
2023-03-13T16:44:08.296Z,98175.42
2023-03-13T16:46:59.238Z,98172.45
2023-03-13T16:49:31.748Z,98159.08
2023-03-13T16:51:58.933Z,98160.52
2023-03-13T16:54:25.970Z,98168.11
2023-03-13T16:56:53.496Z,98167.33
2023-03-13T16:59:21.661Z,98168.94
2023-03-13T17:01:49.052Z,98170.15
2023-03-13T17:04:19.266Z,98174.08
2023-03-13T17:06:47.865Z,98169.58
2023-03-13T17:09:18.843Z,98170.48
2023-03-13T17:11:45.893Z,98171.06
2023-03-13T17:14:15.372Z,98167.52
2023-03-13T17:16:46.451Z,98168.27
2023-03-13T17:19:15.027Z,98163.80
2023-03-13T17:21:42.072Z,98164.47
2023-03-13T17:24:09.074Z,98161.70
2023-03-13T17:26:42.149Z,98158.50
2023-03-13T17:29:13.634Z,98159.15
2023-03-13T17:31:41.819Z,98159.86
2023-03-13T17:34:10.530Z,98162.42
2023-03-13T17:36:40.031Z,98159.16
2023-03-13T17:39:11.366Z,98156.74
2023-03-13T17:41:39.844Z,98155.77
2023-03-13T17:44:12.837Z,98151.17
2023-03-13T17:46:48.014Z,98149.97
2023-03-13T17:49:17.383Z,98151.30
2023-03-13T17:51:46.363Z,98153.75
2023-03-13T17:54:15.665Z,98153.75
2023-03-13T17:56:43.379Z,98152.47
2023-03-13T17:59:18.580Z,98150.86
2023-03-13T18:01:49.256Z,98147.70
2023-03-13T18:04:20.296Z,98140.75
2023-03-13T18:06:48.803Z,98138.36
2023-03-13T18:09:24.948Z,98138.60
2023-03-13T18:11:54.763Z,98140.84
2023-03-13T18:14:23.665Z,98141.54
2023-03-13T18:16:58.078Z,98144.52
2023-03-13T18:19:26.779Z,98141.80
2023-03-13T18:21:55.478Z,98143.98
2023-03-13T18:24:28.030Z,98139.70
2023-03-13T18:26:55.344Z,98143.44
2023-03-13T18:29:27.045Z,98139.48
2023-03-13T18:31:58.706Z,98139.92
2023-03-13T18:34:26.374Z,98136.48
2023-03-13T18:36:55.024Z,98139.69
2023-03-13T18:40:12.719Z,98144.14
2023-03-13T18:43:15.878Z,98144.36
2023-03-13T18:46:04.002Z,98141.33
2023-03-13T18:48:35.319Z,98138.39
2023-03-13T18:51:04.147Z,98133.70
2023-03-13T18:53:31.227Z,98141.97
2023-03-13T18:56:27.813Z,98145.18
2023-03-13T18:58:55.401Z,98145.89
2023-03-13T19:01:52.220Z,98141.94
2023-03-13T19:04:21.949Z,98142.67
2023-03-13T19:06:51.245Z,98140.27
2023-03-13T19:12:07.098Z,98134.58
2023-03-13T19:14:36.773Z,98128.88
2023-03-13T19:17:07.016Z,98123.36
2023-03-13T19:19:34.905Z,98124.17
2023-03-13T19:22:05.440Z,98120.67
2023-03-13T19:24:36.180Z,98121.53
2023-03-13T19:27:13.173Z,98114.13
2023-03-13T19:29:42.164Z,98116.23
2023-03-13T19:32:16.340Z,98111.21
2023-03-13T19:34:44.778Z,98112.13
2023-03-13T19:37:15.386Z,98108.15
2023-03-13T19:39:52.469Z,98108.89
2023-03-13T19:42:20.117Z,98108.84
2023-03-13T19:45:48.450Z,98111.22
2023-03-13T19:48:57.632Z,98107.33
2023-03-13T19:52:04.607Z,98102.14
2023-03-13T19:54:32.560Z,98096.90
2023-03-13T19:56:59.909Z,98097.67
2023-03-13T19:59:33.533Z,98102.84
2023-03-13T20:02:04.196Z,98100.31
2023-03-13T20:04:33.295Z,98101.66
2023-03-13T20:07:02.419Z,98098.81
2023-03-13T20:09:34.747Z,98097.37
2023-03-13T20:12:02.857Z,98097.31
2023-03-13T20:14:36.864Z,98094.47
2023-03-13T20:17:04.466Z,98092.73
2023-03-13T20:19:31.726Z,98085.36
2023-03-13T20:22:05.481Z,98086.66
2023-03-13T20:24:36.160Z,98083.79
2023-03-13T20:27:06.566Z,98074.31
2023-03-13T20:29:34.065Z,98072.48
2023-03-13T20:32:06.011Z,98070.27
2023-03-13T20:34:34.123Z,98069.59
2023-03-13T20:37:01.244Z,98067.47
2023-03-13T20:39:30.128Z,98068.41
2023-03-13T20:41:57.498Z,98069.70
2023-03-13T20:44:24.819Z,98067.67
2023-03-13T20:46:52.983Z,98065.08
2023-03-13T20:49:20.549Z,98057.92
2023-03-13T20:51:48.663Z,98054.25
2023-03-13T20:54:15.752Z,98046.88
2023-03-13T20:56:42.797Z,98040.24
2023-03-13T20:59:10.049Z,98038.85
2023-03-13T21:01:38.064Z,98033.67
2023-03-13T21:04:05.377Z,98029.04
2023-03-13T21:06:34.115Z,98025.77
2023-03-13T21:09:04.462Z,98019.14
2023-03-13T21:11:33.854Z,98013.00
2023-03-13T21:14:01.137Z,98008.48
2023-03-13T21:16:32.945Z,98001.11
2023-03-13T21:19:02.522Z,97998.84
2023-03-13T21:21:30.045Z,97994.84
2023-03-13T21:24:07.036Z,97992.38
2023-03-13T21:26:35.418Z,97991.19
2023-03-13T21:29:03.602Z,97986.95
2023-03-13T21:31:31.083Z,97979.87
2023-03-13T21:33:58.297Z,97972.04
2023-03-13T21:36:27.417Z,97969.91
2023-03-13T21:38:54.585Z,97965.86
2023-03-13T21:41:24.581Z,97965.84
2023-03-13T21:43:55.959Z,97968.98
2023-03-13T21:46:31.092Z,97974.42
2023-03-13T21:48:59.258Z,97972.48
2023-03-13T21:51:27.493Z,97964.56
2023-03-13T21:53:58.433Z,97962.29
2023-03-13T21:56:25.672Z,97959.48
2023-03-13T21:58:53.033Z,97957.48
2023-03-13T22:01:23.568Z,97953.13
2023-03-13T22:03:58.095Z,97957.68
2023-03-13T22:06:27.345Z,97959.85
2023-03-13T22:08:55.456Z,97959.98
2023-03-13T22:11:27.724Z,97965.73
2023-03-13T22:13:55.086Z,97967.81
2023-03-13T22:16:25.436Z,97967.58
2023-03-13T22:19:00.307Z,97963.16
2023-03-13T22:21:27.782Z,97961.70
2023-03-13T22:23:54.891Z,97956.90
2023-03-13T22:26:22.135Z,97952.88
2023-03-13T22:28:49.697Z,97949.83
2023-03-13T22:31:19.929Z,97947.77
2023-03-13T22:33:47.968Z,97945.67
2023-03-13T22:36:15.520Z,97946.03
2023-03-13T22:38:43.525Z,97948.14
2023-03-13T22:41:12.979Z,97948.03
2023-03-13T22:43:41.489Z,97946.06
2023-03-13T22:46:12.705Z,97943.55
2023-03-13T22:48:40.126Z,97942.11
2023-03-13T22:51:09.235Z,97940.83
2023-03-13T22:53:37.476Z,97943.74
2023-03-13T22:56:05.455Z,97944.55
2023-03-13T22:58:33.716Z,97943.56
2023-03-13T23:01:01.530Z,97946.90
2023-03-13T23:03:28.886Z,97936.08
2023-03-13T23:05:56.089Z,97935.64
2023-03-13T23:08:25.964Z,97929.45
2023-03-13T23:10:53.610Z,97930.48
2023-03-13T23:13:22.155Z,97932.52
2023-03-13T23:15:56.112Z,97926.89
2023-03-13T23:18:24.756Z,97922.27
2023-03-13T23:21:03.351Z,97925.56
2023-03-13T23:23:33.854Z,97919.39
2023-03-13T23:26:05.898Z,97924.05
2023-03-13T23:28:34.789Z,97923.44
2023-03-13T23:31:10.403Z,97920.75
2023-03-13T23:33:40.222Z,97921.87
2023-03-13T23:36:08.911Z,97925.60
2023-03-13T23:38:39.581Z,97925.69
2023-03-13T23:41:11.651Z,97922.66
2023-03-13T23:43:39.288Z,97917.05
2023-03-13T23:46:49.756Z,97908.06
2023-03-13T23:50:58.013Z,97908.27
2023-03-13T23:54:49.594Z,97912.00
2023-03-13T23:58:02.319Z,97915.41
